Nearby METAR Reports

 

LFRV - Vannes-Meucon, FRANCE
Distance from station: NE 28km
Mise à jour: 20/11/2017 23:30
couvert
couvert
 Wind from S
Vent: S 13 km/h
Température: 11°C
Point de rosée: 10°C
Humidité: 94%
Baromètre: 1019 hPa
Clouds: couvert
Visibility: 10 km
Cloud details: couvert 305 m
2017/11/20 22:30 LFRV 202230Z AUTO 19007KT 160V220 9999 OVC010 11/10 Q1019
LFRZ - Saint - Nazaire / Montoir, FRANCE
Distance from station: SE 64km
Mise à jour: 20/11/2017 23:30
couvert
couvert
 Wind from S
Vent: S 15 km/h
Température: 11°C
Point de rosée: 10°C
Humidité: 94%
Baromètre: 1020 hPa
Clouds: couvert
Visibility: 10 km
Cloud details: couvert 518 m
2017/11/20 22:30 LFRZ 202230Z AUTO 18008KT 9999 OVC017 11/10 Q1020 TEMPO 3000 BR OVC005
 
LFRH - Lorient / Lann- Bihoué, FRANCE
Distance from station: NO 81km
Mise à jour: 20/11/2017 23:30
clair
clair
 Wind from S
Vent: S 13 km/h
Température: 11°C
Point de rosée: 10°C
Humidité: 94%
Baromètre: 1019 hPa
Résumé: clair
Visibility: supérieur à 10 km
2017/11/20 22:30 LFRH 202230Z AUTO 19007KT CAVOK 11/10 Q1019 NOSIG
LFRB - Brest - Guipavas, FRANCE
Distance from station: NO 200km
Mise à jour: 20/11/2017 23:30
couvert
couvert
 Wind from SSO
Vent: SSO 22 km/h
Température: 12°C
Point de rosée: 11°C
Humidité: 94%
Baromètre: 1018 hPa
Clouds: couvert
Visibility: 10 km
Cloud details: nuageux 183 m
couvert 488 m
2017/11/20 22:30 LFRB 202230Z AUTO 20012KT 9999 BKN006 OVC016 12/11 Q1018 NOSIG
 
LFPV - Villacoublay - Vélizy/, FRANCE
Distance from station: NE 450km
Mise à jour: 20/11/2017 23:30
partiellement nuageux
partiellement nuageux
 Wind from SO
Vent: SO 15 km/h
Température: 8°C
Wind Chill: 5°C
Point de rosée: 7°C
Humidité: 93%
Baromètre: 1019 hPa
Clouds: partiellement nuageux
Visibility: 10 km
Cloud details: partiellement nuageux 335 m
partiellement nuageux 6706 m
2017/11/20 22:30 LFPV 202230Z AUTO 23008KT 9999 SCT011 SCT220 08/07 Q1019 TEMPO BKN004
LFRS - Nantes Atlantique, FRANCE
Distance from station: SE 106km
Mise à jour: 20/11/2017 23:30
couvert
couvert
 Wind from S
Vent: S 9 km/h
Température: 10°C
Wind Chill: 9°C
Point de rosée: 8°C
Humidité: 88%
Baromètre: 1021 hPa
Clouds: couvert
Visibility: 10 km
Cloud details: couvert 335 m
2017/11/20 22:30 LFRS 202230Z AUTO 17005KT 9999 OVC011 10/08 Q1021 TEMPO 0300 FG VV///